createdAt,value
2022-10-01T00:05:14.473Z,24.7
2022-10-01T00:10:33.259Z,24.7
2022-10-01T00:15:51.749Z,24.7
2022-10-01T00:21:09.943Z,24.7
2022-10-01T00:26:28.743Z,24.7
2022-10-01T00:31:47.379Z,24.7
2022-10-01T00:37:05.574Z,24.8
2022-10-01T00:42:23.832Z,24.8
2022-10-01T00:47:42.574Z,24.8
2022-10-01T00:53:01.058Z,24.8
2022-10-01T00:58:19.027Z,24.8
2022-10-01T01:03:37.216Z,24.8
2022-10-01T01:08:55.970Z,24.8
2022-10-01T01:14:14.479Z,24.8
2022-10-01T01:19:33.240Z,24.8
2022-10-01T01:24:51.988Z,24.8
2022-10-01T01:30:10.507Z,24.8
2022-10-01T01:35:28.965Z,24.9
2022-10-01T01:40:47.740Z,24.9
2022-10-01T01:46:06.547Z,24.9
2022-10-01T01:51:24.953Z,24.9
2022-10-01T01:56:43.435Z,24.9
2022-10-01T02:02:02.375Z,24.9
2022-10-01T02:07:20.728Z,24.9
2022-10-01T02:12:39.500Z,24.9
2022-10-01T02:17:58.304Z,24.9
2022-10-01T02:23:17.242Z,24.9
2022-10-01T02:28:35.720Z,24.9
2022-10-01T02:33:38.615Z,24.9
2022-10-01T02:38:57.353Z,24.9
2022-10-01T02:44:15.844Z,24.9
2022-10-01T02:49:34.640Z,24.9
2022-10-01T02:54:52.822Z,24.9
2022-10-01T03:00:11.304Z,24.9
2022-10-01T03:05:29.591Z,24.9
2022-10-01T03:10:48.065Z,24.9
2022-10-01T03:16:06.891Z,24.9
2022-10-01T03:21:25.116Z,24.9
2022-10-01T03:26:43.602Z,24.9
2022-10-01T03:32:02.088Z,24.9
2022-10-01T03:37:20.326Z,24.9
2022-10-01T03:42:38.509Z,24.9
2022-10-01T03:47:57.003Z,24.9
2022-10-01T03:53:15.800Z,24.9
2022-10-01T03:58:33.980Z,24.9
2022-10-01T04:03:52.747Z,24.9
2022-10-01T04:09:11.530Z,24.9
2022-10-01T04:14:29.714Z,24.9
2022-10-01T04:19:48.472Z,24.9
2022-10-01T04:25:06.717Z,24.9
2022-10-01T04:30:25.271Z,24.9
2022-10-01T04:35:43.477Z,24.9
2022-10-01T04:41:02.341Z,24.9
2022-10-01T04:46:20.720Z,24.9
2022-10-01T04:51:38.879Z,24.9
2022-10-01T04:56:57.381Z,25
2022-10-01T05:02:15.880Z,25
2022-10-01T05:07:34.088Z,25
2022-10-01T05:12:52.605Z,25
2022-10-01T05:18:11.079Z,25
2022-10-01T05:23:29.564Z,25
2022-10-01T05:28:47.797Z,25
2022-10-01T05:34:06.550Z,25
2022-10-01T05:39:25.327Z,25
2022-10-01T05:44:43.840Z,25
2022-10-01T05:50:02.321Z,25
2022-10-01T05:55:20.800Z,25
2022-10-01T06:00:39.598Z,25
2022-10-01T06:05:58.346Z,25
2022-10-01T06:11:16.842Z,25
2022-10-01T06:16:35.570Z,25.1
2022-10-01T06:21:53.776Z,25.1
2022-10-01T06:27:12.518Z,25.1
2022-10-01T06:32:35.314Z,25
2022-10-01T06:37:54.129Z,25
2022-10-01T06:43:12.896Z,25
2022-10-01T06:48:31.462Z,25
2022-10-01T06:53:49.923Z,25.1
2022-10-01T06:59:08.123Z,25.1
2022-10-01T07:04:26.917Z,25.1
2022-10-01T07:09:45.390Z,25.1
2022-10-01T07:15:04.165Z,25.2
2022-10-01T07:20:22.668Z,25.2
2022-10-01T07:25:40.853Z,25.2
2022-10-01T07:30:59.064Z,25.3
2022-10-01T07:36:17.022Z,25.3
2022-10-01T07:41:36.074Z,25.3
2022-10-01T07:46:54.904Z,25.3
2022-10-01T07:52:13.836Z,25.4
2022-10-01T07:57:32.562Z,25.4
2022-10-01T08:02:51.323Z,25.4
2022-10-01T08:08:09.255Z,25.4
2022-10-01T08:13:28.008Z,25.4
2022-10-01T08:18:46.774Z,25.3
2022-10-01T08:24:04.999Z,25.3
2022-10-01T08:29:23.452Z,25.3
2022-10-01T08:34:41.386Z,25.3
2022-10-01T08:39:59.890Z,25.2
2022-10-01T08:45:18.344Z,25.2
2022-10-01T08:50:36.809Z,25.2
2022-10-01T08:55:55.324Z,25.2
2022-10-01T09:01:14.203Z,25.1
2022-10-01T09:06:32.520Z,25.1
2022-10-01T09:11:51.296Z,25.1
2022-10-01T09:17:09.750Z,25.1
2022-10-01T09:22:28.506Z,25.1
2022-10-01T09:27:47.416Z,25.1
2022-10-01T09:33:05.305Z,25.1
2022-10-01T09:38:23.780Z,25.1
2022-10-01T09:43:42.282Z,25.1
2022-10-01T09:49:00.461Z,25
2022-10-01T09:54:03.320Z,25.1
2022-10-01T09:59:21.821Z,25
2022-10-01T10:04:40.009Z,24.9
2022-10-01T10:09:58.768Z,25
2022-10-01T10:15:16.988Z,24.9
2022-10-01T10:20:35.176Z,24.9
2022-10-01T10:25:53.089Z,24.9
2022-10-01T10:31:11.172Z,24.9
2022-10-01T10:36:30.006Z,24.8
2022-10-01T10:41:48.477Z,24.8
2022-10-01T10:47:06.994Z,24.8
2022-10-01T10:52:25.432Z,24.8
2022-10-01T10:57:44.190Z,24.8
2022-10-01T11:03:02.418Z,24.7
2022-10-01T11:08:20.592Z,24.7
2022-10-01T11:13:39.083Z,24.7
2022-10-01T11:18:57.303Z,24.7
2022-10-01T11:24:15.748Z,24.7
2022-10-01T11:29:34.505Z,24.6
2022-10-01T11:34:53.248Z,24.7
2022-10-01T11:40:11.706Z,24.6
2022-10-01T11:45:30.475Z,24.7
2022-10-01T11:50:49.223Z,24.7
2022-10-01T11:56:07.652Z,24.7
2022-10-01T12:01:25.849Z,24.7
2022-10-01T12:06:44.069Z,24.7
2022-10-01T12:12:01.961Z,24.7
2022-10-01T12:17:20.704Z,24.7
2022-10-01T12:22:39.498Z,24.7
2022-10-01T12:27:58.309Z,24.7
2022-10-01T12:33:16.581Z,24.7
2022-10-01T12:38:34.920Z,24.8
2022-10-01T12:43:53.102Z,24.8
2022-10-01T12:49:11.580Z,24.8
2022-10-01T12:54:30.065Z,24.8
2022-10-01T12:59:48.778Z,24.8
2022-10-01T13:05:07.251Z,24.8
2022-10-01T13:10:25.490Z,24.7
2022-10-01T13:15:43.797Z,24.7
2022-10-01T13:21:01.809Z,24.7
2022-10-01T13:26:20.590Z,24.7
2022-10-01T13:31:38.993Z,24.7
2022-10-01T13:36:57.675Z,24.8
2022-10-01T13:42:16.551Z,24.8
2022-10-01T13:47:35.369Z,24.8
2022-10-01T13:52:54.131Z,24.8
2022-10-01T13:58:12.908Z,24.8
2022-10-01T14:03:31.368Z,24.8
2022-10-01T14:08:49.849Z,24.8
2022-10-01T14:14:08.361Z,24.8
2022-10-01T14:19:26.868Z,24.8
2022-10-01T14:24:45.059Z,24.8
2022-10-01T14:30:03.883Z,24.8
2022-10-01T14:35:22.274Z,24.8
2022-10-01T14:40:40.756Z,24.8
2022-10-01T14:45:59.495Z,24.8
2022-10-01T14:51:17.688Z,24.8
2022-10-01T14:56:36.662Z,24.8
2022-10-01T15:01:55.347Z,24.8
2022-10-01T15:06:57.907Z,24.8
2022-10-01T15:12:16.663Z,24.8
2022-10-01T15:17:35.226Z,24.8
2022-10-01T15:22:55.876Z,24.8
2022-10-01T15:28:19.614Z,24.8
2022-10-01T15:33:37.949Z,24.8
2022-10-01T15:38:56.690Z,24.8
2022-10-01T15:44:15.162Z,24.8
2022-10-01T15:49:33.676Z,24.8
2022-10-01T15:54:52.133Z,24.8
2022-10-01T16:00:10.615Z,24.8
2022-10-01T16:05:29.120Z,24.8
2022-10-01T16:10:47.588Z,24.8
2022-10-01T16:16:06.459Z,24.8
2022-10-01T16:21:24.623Z,24.8
2022-10-01T16:26:42.796Z,24.8
2022-10-01T16:32:00.971Z,24.8
2022-10-01T16:37:19.420Z,24.8
2022-10-01T16:42:37.886Z,24.8
2022-10-01T16:47:56.375Z,24.8
2022-10-01T16:53:15.173Z,24.8
2022-10-01T16:58:39.150Z,24.8
2022-10-01T17:03:57.908Z,24.8
2022-10-01T17:09:16.139Z,24.8
2022-10-01T17:14:34.320Z,24.7
2022-10-01T17:19:52.792Z,24.7
2022-10-01T17:25:11.293Z,24.7
2022-10-01T17:30:29.992Z,24.7
2022-10-01T17:35:48.475Z,24.7
2022-10-01T17:41:06.981Z,24.7
2022-10-01T17:46:25.916Z,24.8
2022-10-01T17:51:44.119Z,24.8
2022-10-01T17:57:02.329Z,24.8
2022-10-01T18:02:42.437Z,24.8
2022-10-01T18:08:01.885Z,24.8
2022-10-01T18:13:20.108Z,24.8
2022-10-01T18:25:12.838Z,24.8
2022-10-01T18:30:31.354Z,24.8
2022-10-01T18:35:50.094Z,24.8
2022-10-01T18:41:08.962Z,24.8
2022-10-01T18:46:27.759Z,24.8
2022-10-01T18:51:45.939Z,24.8
2022-10-01T18:57:04.715Z,24.8
2022-10-01T19:02:23.256Z,24.8
2022-10-01T19:07:41.975Z,24.8
2022-10-01T19:13:00.177Z,24.8
2022-10-01T19:18:18.411Z,24.8
2022-10-01T19:23:36.880Z,24.8
2022-10-01T19:28:55.363Z,24.8
2022-10-01T19:34:13.675Z,24.8
2022-10-01T19:39:32.170Z,24.8
2022-10-01T19:44:50.653Z,24.8
2022-10-01T19:50:08.880Z,24.7
2022-10-01T19:55:27.636Z,24.7
2022-10-01T20:00:45.665Z,24.7
2022-10-01T20:06:04.210Z,24.7
2022-10-01T20:11:22.662Z,24.7
2022-10-01T20:16:41.075Z,24.7
2022-10-01T20:21:59.595Z,24.7
2022-10-01T20:27:18.050Z,24.7
2022-10-01T20:32:36.773Z,24.7
2022-10-01T20:37:55.283Z,24.8
2022-10-01T20:43:13.751Z,24.8
2022-10-01T20:48:32.241Z,24.8
2022-10-01T20:53:50.756Z,24.8
2022-10-01T20:59:08.945Z,24.8
2022-10-01T21:04:27.161Z,24.8
2022-10-01T21:09:45.955Z,24.8
2022-10-01T21:15:04.701Z,24.8
2022-10-01T21:20:23.191Z,24.8
2022-10-01T21:25:41.714Z,24.8
2022-10-01T21:31:00.178Z,24.8
2022-10-01T21:36:18.947Z,24.8
2022-10-01T21:41:37.535Z,24.8
2022-10-01T21:46:56.091Z,24.8
2022-10-01T21:52:14.835Z,24.8
2022-10-01T21:57:33.060Z,24.8
2022-10-01T22:02:51.796Z,24.8
2022-10-01T22:08:10.563Z,24.8
2022-10-01T22:13:29.094Z,24.8
2022-10-01T22:18:47.844Z,24.8
2022-10-01T22:24:06.325Z,24.8
2022-10-01T22:29:24.935Z,24.8
2022-10-01T22:34:43.397Z,24.8
2022-10-01T22:40:01.901Z,24.8
2022-10-01T22:45:20.550Z,24.8
2022-10-01T22:50:39.155Z,24.8
2022-10-01T22:55:57.360Z,24.8
2022-10-01T23:01:16.093Z,24.9
2022-10-01T23:06:34.970Z,24.8
2022-10-01T23:11:53.781Z,24.8
2022-10-01T23:17:12.015Z,24.8
2022-10-01T23:22:30.487Z,24.8
2022-10-01T23:27:49.014Z,24.8
2022-10-01T23:33:07.250Z,24.8
2022-10-01T23:38:25.160Z,24.9
2022-10-01T23:43:43.930Z,24.9
2022-10-01T23:49:05.763Z,24.9
2022-10-01T23:54:24.230Z,24.9
2022-10-01T23:59:42.726Z,24.9
